Time;durP1;ratioP1;P1;durP2;ratioP2;P2;SDS_P1;SDS_P2;PMS_P1;PMS_P2;Temp;Humidity;BMP_temperature;BMP_pressure;BME280_temperature;BME280_humidity;BME280_pressure;Samples;Min_cycle;Max_cycle;Signal;HPM_P1;HPM_P2
2021/12/01 00:02:13;;;;;;;94.18;33.70;;;;;;;;;;5088247;28;20071;-60
2021/12/01 00:04:39;;;;;;;118.20;35.45;;;;;;;;;;5109573;28;20751;-60
2021/12/01 00:07:07;;;;;;;107.28;33.88;;;;;;;;;;5090313;28;20051;-60
2021/12/01 00:09:33;;;;;;;96.80;33.10;;;;;;;;;;5108471;28;20070;-60
2021/12/01 00:12:00;;;;;;;96.95;32.53;;;;;;;;;;5109400;28;20431;-60
2021/12/01 00:14:26;;;;;;;103.80;33.90;;;;;;;;;;5107691;28;20074;-60
2021/12/01 00:16:53;;;;;;;96.88;33.08;;;;;;;;;;5110996;28;20066;-60
2021/12/01 00:19:19;;;;;;;86.78;30.05;;;;;;;;;;5107184;28;20398;-60
2021/12/01 00:21:45;;;;;;;89.85;31.10;;;;;;;;;;5110556;28;20048;-60
2021/12/01 00:24:12;;;;;;;89.07;29.73;;;;;;;;;;5107003;28;20070;-60
2021/12/01 00:26:38;;;;;;;84.82;29.27;;;;;;;;;;5108693;28;20096;-60
2021/12/01 00:29:04;;;;;;;80.82;32.20;;;;;;;;;;5107815;28;20105;-60
2021/12/01 00:31:30;;;;;;;90.38;33.83;;;;;;;;;;5108211;28;20423;-60
2021/12/01 00:33:57;;;;;;;88.50;35.28;;;;;;;;;;5109855;28;20035;-60
2021/12/01 00:36:23;;;;;;;85.85;34.70;;;;;;;;;;5110405;28;20111;-60
2021/12/01 00:38:49;;;;;;;84.78;34.38;;;;;;;;;;5107398;28;20055;-60
2021/12/01 00:41:15;;;;;;;70.82;31.70;;;;;;;;;;5109670;28;20089;-60
2021/12/01 00:43:42;;;;;;;72.07;29.70;;;;;;;;;;5106710;28;20120;-60
2021/12/01 00:46:13;;;;;;;65.93;27.25;;;;;;;;;;5110384;28;20041;-60
2021/12/01 00:48:39;;;;;;;74.78;27.50;;;;;;;;;;5107490;28;20394;-60
2021/12/01 00:51:05;;;;;;;59.67;27.27;;;;;;;;;;5106467;28;20047;-60
2021/12/01 00:53:32;;;;;;;62.25;25.08;;;;;;;;;;5108785;28;20127;-60
2021/12/01 00:55:58;;;;;;;61.55;26.60;;;;;;;;;;5086086;28;20108;-60
2021/12/01 00:58:25;;;;;;;57.28;24.65;;;;;;;;;;5092148;28;20506;-60
2021/12/01 01:00:51;;;;;;;52.88;22.83;;;;;;;;;;5104435;28;20039;-60
2021/12/01 01:03:18;;;;;;;54.13;22.92;;;;;;;;;;5110152;28;20346;-60
2021/12/01 01:05:45;;;;;;;47.13;22.30;;;;;;;;;;5103713;28;20046;-60
2021/12/01 01:08:11;;;;;;;55.33;23.25;;;;;;;;;;5103910;28;20024;-60
2021/12/01 01:18:38;;;;;;;37.25;18.63;;;;;;;;;;5107444;28;20040;-60
2021/12/01 01:21:05;;;;;;;39.10;17.80;;;;;;;;;;5088579;28;20032;-60
2021/12/01 01:23:32;;;;;;;43.22;17.02;;;;;;;;;;5108089;28;20502;-60
2021/12/01 01:25:59;;;;;;;36.00;16.38;;;;;;;;;;5113074;28;20038;-60
2021/12/01 01:28:26;;;;;;;35.70;15.30;;;;;;;;;;5094842;28;20731;-60
2021/12/01 01:30:53;;;;;;;31.83;14.88;;;;;;;;;;5095205;28;20044;-60
2021/12/01 01:33:19;;;;;;;33.50;14.43;;;;;;;;;;5113979;28;20100;-60
2021/12/01 01:35:46;;;;;;;29.13;13.13;;;;;;;;;;5111451;28;20035;-60
2021/12/01 01:38:12;;;;;;;33.78;11.82;;;;;;;;;;5113063;28;20130;-60
2021/12/01 01:40:38;;;;;;;29.40;11.45;;;;;;;;;;5106172;28;20074;-60
2021/12/01 01:43:05;;;;;;;25.63;10.45;;;;;;;;;;5112750;28;20048;-60
2021/12/01 01:45:32;;;;;;;34.63;10.32;;;;;;;;;;5109783;28;20035;-60
2021/12/01 01:48:05;;;;;;;35.72;10.80;;;;;;;;;;5112674;28;20043;-60
2021/12/01 01:50:35;;;;;;;28.55;9.65;;;;;;;;;;5092574;28;20105;-60
2021/12/01 01:53:14;;;;;;;30.10;9.70;;;;;;;;;;5112649;28;20043;-60
2021/12/01 01:55:42;;;;;;;32.53;8.80;;;;;;;;;;5111061;28;20053;-60
2021/12/01 01:58:09;;;;;;;27.65;7.55;;;;;;;;;;5112758;28;20078;-60
2021/12/01 02:00:45;;;;;;;33.38;6.88;;;;;;;;;;5111722;28;20066;-60
2021/12/01 02:03:13;;;;;;;22.48;6.10;;;;;;;;;;5112898;28;20055;-60
2021/12/01 02:05:39;;;;;;;23.08;6.20;;;;;;;;;;5111027;28;20093;-60
2021/12/01 02:08:05;;;;;;;19.17;5.95;;;;;;;;;;5111819;28;20085;-60
2021/12/01 02:10:31;;;;;;;26.05;5.60;;;;;;;;;;5109813;28;20114;-60
2021/12/01 02:12:58;;;;;;;22.23;5.63;;;;;;;;;;5110245;28;20419;-60
2021/12/01 02:15:24;;;;;;;23.42;5.78;;;;;;;;;;5089309;28;20126;-60
2021/12/01 02:17:50;;;;;;;22.90;6.05;;;;;;;;;;5085530;28;20047;-60
2021/12/01 02:20:21;;;;;;;19.02;5.32;;;;;;;;;;5109202;28;20035;-60
2021/12/01 02:22:47;;;;;;;26.80;4.90;;;;;;;;;;5107972;28;20403;-60
2021/12/01 02:25:14;;;;;;;26.75;6.40;;;;;;;;;;5111477;28;20038;-60
2021/12/01 02:27:40;;;;;;;28.27;7.68;;;;;;;;;;5111595;28;20462;-60
2021/12/01 02:30:07;;;;;;;27.75;6.63;;;;;;;;;;5107647;28;20035;-60
2021/12/01 02:32:33;;;;;;;21.50;6.85;;;;;;;;;;5108465;28;20454;-60
2021/12/01 02:34:59;;;;;;;22.98;5.70;;;;;;;;;;5111223;28;20120;-60
2021/12/01 02:37:25;;;;;;;20.95;5.43;;;;;;;;;;5109902;28;20040;-60
2021/12/01 02:39:52;;;;;;;15.45;4.20;;;;;;;;;;5109779;28;20043;-60
2021/12/01 02:45:41;;;;;;;21.70;3.97;;;;;;;;;;5108097;28;20512;-60
2021/12/01 02:48:10;;;;;;;31.80;4.10;;;;;;;;;;5112709;28;20043;-60
2021/12/01 02:50:36;;;;;;;22.13;3.55;;;;;;;;;;5113317;28;20122;-60
2021/12/01 02:53:02;;;;;;;24.92;3.78;;;;;;;;;;5093442;28;20391;-60
2021/12/01 02:55:29;;;;;;;21.08;3.88;;;;;;;;;;5112476;28;20055;-60
2021/12/01 02:57:55;;;;;;;27.52;3.70;;;;;;;;;;5111649;28;20486;-60
2021/12/01 03:00:23;;;;;;;20.02;3.75;;;;;;;;;;5109416;28;20044;-60
2021/12/01 03:02:51;;;;;;;26.20;4.30;;;;;;;;;;5111788;28;20089;-60
2021/12/01 03:05:18;;;;;;;15.40;3.83;;;;;;;;;;5108976;28;20386;-60
2021/12/01 03:07:45;;;;;;;26.27;3.50;;;;;;;;;;5091011;28;20051;-60
2021/12/01 03:10:12;;;;;;;27.63;3.95;;;;;;;;;;5110344;28;20067;-60
2021/12/01 03:12:39;;;;;;;27.77;4.93;;;;;;;;;;5108411;28;20069;-60
2021/12/01 03:15:06;;;;;;;22.70;3.70;;;;;;;;;;5109072;28;20110;-60
2021/12/01 03:17:32;;;;;;;34.60;4.75;;;;;;;;;;5104682;28;20474;-60
2021/12/01 03:19:58;;;;;;;31.35;4.70;;;;;;;;;;5108888;28;20190;-60
2021/12/01 03:22:25;;;;;;;21.70;4.03;;;;;;;;;;5109383;28;20084;-60
2021/12/01 03:24:52;;;;;;;25.90;3.88;;;;;;;;;;5107095;28;20441;-60
2021/12/01 03:27:18;;;;;;;19.60;3.97;;;;;;;;;;5104903;28;20036;-60
2021/12/01 03:29:46;;;;;;;20.75;3.42;;;;;;;;;;5105293;28;20087;-60
2021/12/01 03:32:13;;;;;;;28.40;5.00;;;;;;;;;;5087293;28;20456;-60
2021/12/01 03:34:40;;;;;;;20.70;4.18;;;;;;;;;;5107120;28;20393;-60
2021/12/01 03:37:06;;;;;;;23.23;3.60;;;;;;;;;;5105196;28;20043;-60
2021/12/01 03:39:32;;;;;;;21.70;4.55;;;;;;;;;;5100236;28;20127;-60
2021/12/01 03:41:59;;;;;;;29.02;4.57;;;;;;;;;;5108675;28;20105;-60
2021/12/01 03:44:25;;;;;;;28.50;3.70;;;;;;;;;;5108482;28;20431;-60
2021/12/01 03:46:52;;;;;;;40.45;4.70;;;;;;;;;;5111204;28;20050;-60
2021/12/01 03:49:18;;;;;;;30.20;4.25;;;;;;;;;;5109059;28;20043;-60
2021/12/01 03:51:44;;;;;;;27.42;5.20;;;;;;;;;;5090488;28;20055;-60
2021/12/01 03:54:10;;;;;;;23.02;3.92;;;;;;;;;;5109520;28;20031;-60
2021/12/01 03:56:36;;;;;;;29.63;4.32;;;;;;;;;;5091761;28;20047;-60
2021/12/01 03:59:04;;;;;;;39.50;5.45;;;;;;;;;;5107795;28;20042;-60
2021/12/01 04:01:30;;;;;;;35.55;5.60;;;;;;;;;;5104396;28;20034;-60
2021/12/01 04:03:58;;;;;;;35.30;5.75;;;;;;;;;;5102924;28;20048;-60
2021/12/01 04:06:24;;;;;;;40.65;8.00;;;;;;;;;;5104974;28;20111;-60
2021/12/01 04:08:50;;;;;;;46.10;7.63;;;;;;;;;;5109715;28;20070;-60
2021/12/01 04:11:17;;;;;;;35.90;5.30;;;;;;;;;;5109787;28;20077;-60
2021/12/01 04:13:43;;;;;;;38.15;6.10;;;;;;;;;;5108750;28;20067;-60
2021/12/01 04:16:09;;;;;;;43.38;6.72;;;;;;;;;;5110474;28;20402;-60
2021/12/01 04:18:36;;;;;;;43.60;6.18;;;;;;;;;;5087907;28;20096;-60
2021/12/01 04:21:02;;;;;;;38.78;5.65;;;;;;;;;;5110654;28;20501;-60
2021/12/01 04:23:30;;;;;;;42.65;6.97;;;;;;;;;;5109256;28;20506;-60
2021/12/01 04:25:57;;;;;;;45.83;6.97;;;;;;;;;;5087056;28;20051;-60
2021/12/01 04:28:23;;;;;;;56.08;6.50;;;;;;;;;;5089351;28;20390;-60
2021/12/01 04:30:49;;;;;;;45.30;7.43;;;;;;;;;;5110581;28;20031;-60
2021/12/01 04:33:15;;;;;;;33.70;5.88;;;;;;;;;;5107608;28;20044;-60
2021/12/01 04:35:42;;;;;;;41.00;5.35;;;;;;;;;;5090615;28;20047;-60
2021/12/01 04:38:08;;;;;;;40.22;5.30;;;;;;;;;;5109777;28;20114;-60
2021/12/01 04:40:34;;;;;;;36.47;4.97;;;;;;;;;;5107826;28;20502;-60
2021/12/01 04:43:01;;;;;;;37.28;7.22;;;;;;;;;;5104989;28;20137;-60
2021/12/01 04:45:28;;;;;;;32.00;5.43;;;;;;;;;;5102891;28;20490;-60
2021/12/01 04:47:55;;;;;;;36.58;5.25;;;;;;;;;;5106333;28;20040;-60
2021/12/01 04:50:24;;;;;;;32.10;5.80;;;;;;;;;;5103946;28;20059;-60
2021/12/01 04:52:51;;;;;;;24.02;4.88;;;;;;;;;;5108258;28;20051;-60
2021/12/01 04:55:17;;;;;;;16.92;4.20;;;;;;;;;;5110472;28;20071;-60
2021/12/01 04:57:45;;;;;;;15.38;4.22;;;;;;;;;;5088755;28;20483;-60
2021/12/01 05:00:12;;;;;;;18.73;3.78;;;;;;;;;;5107294;28;20092;-60
2021/12/01 05:02:39;;;;;;;11.57;3.55;;;;;;;;;;5108400;28;20473;-60
2021/12/01 05:05:05;;;;;;;11.32;3.47;;;;;;;;;;5107194;28;20042;-60
2021/12/01 05:07:32;;;;;;;13.25;3.40;;;;;;;;;;5107534;28;20114;-60
2021/12/01 05:09:58;;;;;;;7.40;2.90;;;;;;;;;;5109149;28;20054;-60
2021/12/01 05:12:24;;;;;;;11.25;4.57;;;;;;;;;;5110008;28;20044;-60
2021/12/01 05:14:51;;;;;;;6.78;2.90;;;;;;;;;;5106785;28;20032;-60
2021/12/01 05:17:19;;;;;;;7.32;2.83;;;;;;;;;;5107536;28;20057;-60
2021/12/01 05:19:45;;;;;;;9.63;4.45;;;;;;;;;;5107475;28;20058;-60
2021/12/01 05:22:11;;;;;;;8.27;5.10;;;;;;;;;;5105608;28;20044;-60
2021/12/01 05:24:37;;;;;;;7.60;4.57;;;;;;;;;;5108084;28;20135;-60
2021/12/01 05:27:04;;;;;;;8.52;5.38;;;;;;;;;;5107747;28;20073;-60
2021/12/01 05:29:31;;;;;;;7.32;4.93;;;;;;;;;;5108305;28;20075;-60
2021/12/01 05:31:57;;;;;;;8.10;4.38;;;;;;;;;;5106519;28;20161;-60
2021/12/01 05:34:24;;;;;;;8.05;5.07;;;;;;;;;;5108986;28;20395;-60
2021/12/01 05:36:50;;;;;;;8.02;4.15;;;;;;;;;;5106030;28;20074;-60
2021/12/01 05:39:17;;;;;;;10.30;4.55;;;;;;;;;;5108804;28;20066;-60
2021/12/01 05:41:43;;;;;;;7.60;4.40;;;;;;;;;;5106114;28;20035;-60
2021/12/01 05:44:09;;;;;;;8.35;4.35;;;;;;;;;;5108674;28;20047;-60
2021/12/01 05:46:36;;;;;;;6.03;3.58;;;;;;;;;;5089663;28;20459;-60
2021/12/01 05:49:03;;;;;;;8.30;5.13;;;;;;;;;;5107813;28;20165;-60
2021/12/01 05:51:29;;;;;;;10.82;4.90;;;;;;;;;;5109387;28;20414;-60
2021/12/01 05:53:55;;;;;;;10.32;5.40;;;;;;;;;;5087321;28;20507;-60
2021/12/01 05:56:21;;;;;;;10.48;5.97;;;;;;;;;;5090439;28;20143;-60
2021/12/01 05:58:48;;;;;;;9.32;5.38;;;;;;;;;;5088731;28;20043;-60
2021/12/01 06:01:14;;;;;;;12.15;6.88;;;;;;;;;;5088879;28;20096;-60
2021/12/01 06:03:40;;;;;;;11.35;5.78;;;;;;;;;;5107377;28;20035;-60
2021/12/01 06:06:07;;;;;;;8.95;5.03;;;;;;;;;;5107812;28;20048;-60
2021/12/01 06:08:33;;;;;;;7.63;4.60;;;;;;;;;;5104682;28;20101;-60
2021/12/01 06:10:59;;;;;;;10.98;5.45;;;;;;;;;;5086935;28;20131;-60
2021/12/01 06:13:25;;;;;;;8.35;4.68;;;;;;;;;;5111869;28;20040;-60
2021/12/01 06:15:52;;;;;;;8.95;5.07;;;;;;;;;;5108099;28;20234;-60
2021/12/01 06:18:19;;;;;;;10.68;6.25;;;;;;;;;;5104149;28;20162;-60
2021/12/01 06:20:45;;;;;;;14.57;7.45;;;;;;;;;;5107289;28;20089;-60
2021/12/01 06:23:12;;;;;;;14.43;7.93;;;;;;;;;;5091609;28;20443;-60
2021/12/01 06:25:38;;;;;;;14.55;9.13;;;;;;;;;;5108054;28;20470;-60
2021/12/01 06:28:06;;;;;;;15.05;8.00;;;;;;;;;;5089862;28;20048;-60
2021/12/01 06:30:36;;;;;;;12.13;6.97;;;;;;;;;;5107669;28;20078;-60
2021/12/01 06:33:02;;;;;;;14.40;8.55;;;;;;;;;;5099770;28;20082;-60
2021/12/01 06:35:29;;;;;;;13.52;7.57;;;;;;;;;;5106729;28;20039;-60
2021/12/01 06:37:55;;;;;;;10.98;6.07;;;;;;;;;;5108359;28;20044;-60
2021/12/01 06:40:22;;;;;;;13.27;7.03;;;;;;;;;;5111047;28;20036;-60
2021/12/01 06:42:48;;;;;;;12.05;7.57;;;;;;;;;;5091262;28;20132;-60
2021/12/01 06:45:16;;;;;;;15.40;8.40;;;;;;;;;;5099268;28;20039;-60
2021/12/01 06:47:42;;;;;;;14.73;9.02;;;;;;;;;;5108729;28;20150;-60
2021/12/01 06:50:09;;;;;;;15.15;8.90;;;;;;;;;;5086552;28;20071;-59
2021/12/01 06:52:35;;;;;;;13.13;8.23;;;;;;;;;;5086039;28;20051;-60
2021/12/01 06:55:02;;;;;;;13.52;8.20;;;;;;;;;;5088732;28;20044;-60
2021/12/01 06:57:28;;;;;;;13.00;8.23;;;;;;;;;;5086726;28;20086;-60
2021/12/01 06:59:54;;;;;;;15.43;7.45;;;;;;;;;;5088262;28;20044;-60
2021/12/01 07:02:20;;;;;;;19.02;8.98;;;;;;;;;;5090334;28;20452;-60
2021/12/01 07:04:46;;;;;;;20.42;9.23;;;;;;;;;;5089168;28;20065;-60
2021/12/01 07:07:13;;;;;;;24.05;10.38;;;;;;;;;;5087189;28;20040;-60
2021/12/01 07:09:39;;;;;;;22.02;9.52;;;;;;;;;;5085701;28;20371;-60
2021/12/01 07:12:06;;;;;;;18.95;8.52;;;;;;;;;;5089175;28;20063;-60
2021/12/01 07:14:32;;;;;;;19.35;8.85;;;;;;;;;;5087397;28;20080;-60
2021/12/01 07:16:58;;;;;;;19.90;7.82;;;;;;;;;;5089760;28;20047;-60
2021/12/01 07:19:24;;;;;;;16.10;7.80;;;;;;;;;;5085687;28;20129;-60
2021/12/01 07:21:51;;;;;;;20.98;8.48;;;;;;;;;;5089838;28;20039;-59
2021/12/01 07:24:20;;;;;;;20.80;9.88;;;;;;;;;;5085695;28;20044;-59
2021/12/01 07:26:46;;;;;;;20.17;9.88;;;;;;;;;;5088665;28;20044;-60
2021/12/01 07:29:12;;;;;;;22.88;10.45;;;;;;;;;;5087917;28;20043;-62
2021/12/01 07:31:38;;;;;;;21.35;10.93;;;;;;;;;;5087405;28;20391;-61
2021/12/01 07:34:05;;;;;;;20.75;9.70;;;;;;;;;;5085434;28;20492;-60
2021/12/01 07:36:31;;;;;;;26.60;8.90;;;;;;;;;;5085738;28;20067;-60
2021/12/01 07:38:59;;;;;;;18.33;7.15;;;;;;;;;;5083640;28;20168;-60
2021/12/01 07:41:26;;;;;;;27.95;8.10;;;;;;;;;;5083835;28;20059;-60
2021/12/01 07:43:52;;;;;;;23.20;8.18;;;;;;;;;;5085731;28;20098;-60
2021/12/01 07:46:18;;;;;;;26.30;7.90;;;;;;;;;;5080061;28;20080;-60
2021/12/01 07:48:45;;;;;;;26.98;7.28;;;;;;;;;;5080961;28;20495;-60
2021/12/01 07:51:12;;;;;;;19.60;6.68;;;;;;;;;;5097023;28;20447;-60
2021/12/01 07:53:38;;;;;;;27.10;9.00;;;;;;;;;;5103000;28;20083;-61
2021/12/01 07:56:05;;;;;;;29.02;7.68;;;;;;;;;;5090768;28;20048;-60
2021/12/01 07:58:31;;;;;;;28.60;8.18;;;;;;;;;;5111569;28;20433;-60
2021/12/01 08:00:58;;;;;;;26.08;8.18;;;;;;;;;;5108368;28;20398;-60
2021/12/01 08:03:24;;;;;;;30.85;6.53;;;;;;;;;;5093407;28;20126;-60
2021/12/01 08:05:50;;;;;;;26.40;4.50;;;;;;;;;;5108229;28;20039;-59
2021/12/01 08:08:16;;;;;;;18.35;3.38;;;;;;;;;;5106215;28;20454;-60
2021/12/01 08:10:45;;;;;;;20.63;3.72;;;;;;;;;;5105884;28;20032;-60
2021/12/01 08:13:11;;;;;;;23.67;3.70;;;;;;;;;;5104423;28;20473;-60
2021/12/01 08:15:37;;;;;;;22.05;3.08;;;;;;;;;;5104820;28;20040;-60
2021/12/01 08:18:03;;;;;;;18.42;3.85;;;;;;;;;;5095425;28;20039;-60
2021/12/01 08:20:30;;;;;;;21.60;3.53;;;;;;;;;;5097955;28;20490;-60
2021/12/01 08:22:57;;;;;;;22.60;4.35;;;;;;;;;;5101187;28;20071;-60
2021/12/01 08:25:23;;;;;;;16.67;2.92;;;;;;;;;;5086075;28;20408;-60
2021/12/01 08:27:50;;;;;;;22.60;3.72;;;;;;;;;;5056799;28;20161;-60
2021/12/01 08:30:17;;;;;;;17.27;2.70;;;;;;;;;;5062158;28;20428;-60
2021/12/01 08:32:46;;;;;;;18.30;2.75;;;;;;;;;;5048210;28;20101;-61
2021/12/01 08:35:13;;;;;;;22.85;2.35;;;;;;;;;;5053085;28;20041;-60
2021/12/01 08:37:39;;;;;;;18.05;2.92;;;;;;;;;;5054593;28;20612;-60
2021/12/01 08:40:06;;;;;;;14.07;2.58;;;;;;;;;;5039195;28;20055;-60
2021/12/01 08:42:33;;;;;;;20.25;3.05;;;;;;;;;;5059899;28;20615;-60
2021/12/01 08:45:00;;;;;;;17.50;2.95;;;;;;;;;;5051861;28;20044;-60
2021/12/01 08:47:26;;;;;;;23.23;3.00;;;;;;;;;;5059854;28;20040;-60
2021/12/01 08:49:53;;;;;;;20.58;3.40;;;;;;;;;;5054278;28;20096;-60
2021/12/01 08:52:19;;;;;;;15.18;2.00;;;;;;;;;;5059735;28;20110;-60
2021/12/01 08:54:46;;;;;;;12.30;2.20;;;;;;;;;;5038875;28;20048;-60
2021/12/01 08:57:13;;;;;;;24.75;4.15;;;;;;;;;;5055088;28;20053;-60
2021/12/01 08:59:39;;;;;;;20.80;2.75;;;;;;;;;;5043678;28;20510;-60
2021/12/01 09:02:06;;;;;;;19.17;2.47;;;;;;;;;;5057024;28;20110;-60
2021/12/01 09:04:32;;;;;;;17.98;2.53;;;;;;;;;;5059753;28;20384;-60
2021/12/01 09:06:58;;;;;;;17.13;2.75;;;;;;;;;;5042170;28;20410;-63
2021/12/01 09:09:24;;;;;;;15.38;2.80;;;;;;;;;;5060576;28;20553;-60
2021/12/01 09:11:51;;;;;;;22.92;3.40;;;;;;;;;;5061071;28;20491;-61
2021/12/01 09:14:18;;;;;;;21.38;2.60;;;;;;;;;;5056726;28;20091;-60
2021/12/01 09:16:45;;;;;;;22.73;2.65;;;;;;;;;;5054185;28;20045;-60
2021/12/01 09:19:12;;;;;;;19.40;2.80;;;;;;;;;;5044848;28;20431;-60
2021/12/01 09:21:38;;;;;;;30.45;3.03;;;;;;;;;;5059870;28;20116;-60
2021/12/01 09:24:04;;;;;;;24.83;2.92;;;;;;;;;;5052709;28;20037;-60
2021/12/01 09:26:31;;;;;;;22.92;3.50;;;;;;;;;;5057001;28;20132;-60
2021/12/01 09:28:57;;;;;;;21.63;2.90;;;;;;;;;;5062634;28;20033;-60
2021/12/01 09:31:23;;;;;;;20.52;3.00;;;;;;;;;;5047551;28;20579;-60
2021/12/01 09:33:50;;;;;;;22.05;2.53;;;;;;;;;;5066151;28;20040;-60
2021/12/01 09:36:16;;;;;;;26.38;3.35;;;;;;;;;;5064671;28;20041;-60
2021/12/01 09:38:42;;;;;;;26.10;2.90;;;;;;;;;;5059018;28;20119;-60
2021/12/01 09:41:09;;;;;;;20.73;2.72;;;;;;;;;;5055337;28;20045;-60
2021/12/01 09:43:35;;;;;;;34.50;4.40;;;;;;;;;;5056767;28;20096;-64
2021/12/01 09:46:04;;;;;;;22.42;2.78;;;;;;;;;;5048220;28;20041;-60
2021/12/01 09:48:31;;;;;;;33.08;3.05;;;;;;;;;;5060026;28;20036;-60
2021/12/01 09:50:58;;;;;;;30.30;4.03;;;;;;;;;;5063999;28;20057;-60
2021/12/01 09:53:24;;;;;;;24.45;3.35;;;;;;;;;;5064077;28;20059;-60
2021/12/01 09:55:50;;;;;;;30.67;4.25;;;;;;;;;;5065083;28;20389;-60
2021/12/01 09:58:18;;;;;;;24.67;3.45;;;;;;;;;;5060998;28;20507;-60
2021/12/01 10:00:47;;;;;;;25.25;3.50;;;;;;;;;;5058588;28;20555;-60
2021/12/01 10:03:14;;;;;;;37.50;4.53;;;;;;;;;;5060770;28;20056;-60
2021/12/01 10:05:47;;;;;;;28.45;3.50;;;;;;;;;;5058571;28;20051;-60
2021/12/01 10:08:18;;;;;;;31.57;4.53;;;;;;;;;;5058603;28;20053;-60
2021/12/01 10:10:45;;;;;;;27.00;4.57;;;;;;;;;;5062768;28;20045;-60
2021/12/01 10:13:11;;;;;;;23.15;3.08;;;;;;;;;;5043742;28;20557;-60
2021/12/01 10:15:37;;;;;;;20.67;4.03;;;;;;;;;;5063077;28;20115;-60
2021/12/01 10:18:16;;;;;;;23.83;3.05;;;;;;;;;;5060272;28;20080;-60
2021/12/01 10:20:43;;;;;;;24.52;3.28;;;;;;;;;;5060835;28;20049;-60
2021/12/01 10:23:14;;;;;;;22.60;3.15;;;;;;;;;;5060296;28;20471;-60
2021/12/01 10:25:41;;;;;;;19.63;2.50;;;;;;;;;;5060172;28;20499;-60
2021/12/01 10:28:13;;;;;;;22.23;3.03;;;;;;;;;;5058816;28;20044;-60
2021/12/01 10:30:41;;;;;;;32.85;4.47;;;;;;;;;;5059711;28;20096;-60
2021/12/01 10:33:13;;;;;;;27.13;4.40;;;;;;;;;;5060749;28;21829;-60
2021/12/01 10:35:39;;;;;;;29.92;5.20;;;;;;;;;;5058959;28;20047;-60
2021/12/01 10:38:07;;;;;;;33.03;4.13;;;;;;;;;;5063765;28;20125;-60
2021/12/01 10:40:34;;;;;;;27.88;3.88;;;;;;;;;;5063094;28;20370;-60
2021/12/01 10:43:02;;;;;;;25.38;4.57;;;;;;;;;;5059336;28;20036;-60
2021/12/01 10:45:31;;;;;;;31.08;4.38;;;;;;;;;;5060469;28;20340;-60
2021/12/01 10:47:58;;;;;;;21.23;3.13;;;;;;;;;;5062245;28;20087;-60
2021/12/01 10:50:25;;;;;;;26.35;3.00;;;;;;;;;;5059583;28;20571;-61
2021/12/01 10:52:53;;;;;;;19.67;3.78;;;;;;;;;;5062772;28;20375;-60
2021/12/01 10:55:21;;;;;;;26.73;5.63;;;;;;;;;;5059623;28;20041;-61
2021/12/01 10:57:49;;;;;;;22.73;3.83;;;;;;;;;;5059547;28;20519;-60
2021/12/01 11:00:18;;;;;;;26.42;4.28;;;;;;;;;;5064008;28;20137;-60
2021/12/01 11:02:45;;;;;;;28.23;5.65;;;;;;;;;;5061943;28;20068;-60
2021/12/01 11:05:25;;;;;;;21.38;5.22;;;;;;;;;;5058382;28;20045;-60
2021/12/01 11:07:51;;;;;;;28.63;4.25;;;;;;;;;;5057553;28;20037;-60
2021/12/01 11:10:19;;;;;;;34.92;6.63;;;;;;;;;;5055381;28;20044;-60
2021/12/01 11:12:46;;;;;;;44.95;7.50;;;;;;;;;;5059305;28;20036;-60
2021/12/01 11:15:16;;;;;;;34.03;5.43;;;;;;;;;;5049558;28;20041;-60
2021/12/01 11:17:43;;;;;;;29.63;4.88;;;;;;;;;;5058360;28;20037;-61
2021/12/01 11:20:09;;;;;;;23.80;4.60;;;;;;;;;;5057709;28;20072;-60
2021/12/01 11:22:36;;;;;;;27.67;4.22;;;;;;;;;;5049419;28;20072;-60
2021/12/01 11:25:18;;;;;;;28.30;4.63;;;;;;;;;;5053216;28;20052;-60
2021/12/01 11:27:44;;;;;;;29.38;5.80;;;;;;;;;;5043935;28;20044;-60
2021/12/01 11:30:10;;;;;;;26.85;3.90;;;;;;;;;;5068926;28;20450;-60
2021/12/01 11:32:37;;;;;;;26.40;4.53;;;;;;;;;;5040767;28;20047;-60
2021/12/01 11:35:03;;;;;;;24.65;4.10;;;;;;;;;;5055672;28;20082;-60
2021/12/01 11:37:29;;;;;;;25.42;4.85;;;;;;;;;;5070633;28;20045;-66
2021/12/01 11:39:56;;;;;;;26.77;3.97;;;;;;;;;;5068027;28;20091;-60
2021/12/01 11:42:23;;;;;;;29.35;4.20;;;;;;;;;;5065339;28;20511;-61
2021/12/01 11:44:50;;;;;;;28.23;6.60;;;;;;;;;;5058116;28;20063;-60
2021/12/01 11:47:16;;;;;;;33.72;8.00;;;;;;;;;;5063785;28;20556;-60
2021/12/01 11:49:43;;;;;;;44.80;6.70;;;;;;;;;;5067462;28;20510;-60
2021/12/01 11:52:10;;;;;;;30.27;5.22;;;;;;;;;;5070505;28;20040;-60
2021/12/01 11:54:46;;;;;;;31.63;4.68;;;;;;;;;;5059230;28;20549;-60
2021/12/01 11:57:12;;;;;;;19.33;3.03;;;;;;;;;;5070777;28;20048;-60
2021/12/01 11:59:43;;;;;;;21.48;3.22;;;;;;;;;;5066780;28;20476;-60
2021/12/01 12:02:16;;;;;;;45.80;5.35;;;;;;;;;;5048860;28;20144;-60
2021/12/01 12:04:45;;;;;;;30.55;4.65;;;;;;;;;;5064823;28;20033;-60
2021/12/01 12:07:12;;;;;;;20.63;4.13;;;;;;;;;;5049946;28;20049;-60
2021/12/01 12:09:39;;;;;;;18.23;3.25;;;;;;;;;;5069587;28;20141;-60
2021/12/01 12:12:11;;;;;;;21.90;3.63;;;;;;;;;;5070548;28;20036;-60
2021/12/01 12:14:48;;;;;;;25.30;4.15;;;;;;;;;;5064218;28;20051;-60
2021/12/01 12:17:14;;;;;;;21.65;3.65;;;;;;;;;;5041580;28;20049;-62
2021/12/01 12:19:44;;;;;;;18.00;2.85;;;;;;;;;;5048252;28;20048;-62
2021/12/01 12:22:11;;;;;;;20.33;3.53;;;;;;;;;;5070636;28;20414;-62
2021/12/01 12:24:48;;;;;;;15.88;2.92;;;;;;;;;;5064380;28;20090;-62
2021/12/01 12:27:30;;;;;;;20.90;3.40;;;;;;;;;;5070146;28;20426;-62
2021/12/01 12:29:58;;;;;;;17.25;3.72;;;;;;;;;;5069886;28;20264;-62
2021/12/01 12:32:29;;;;;;;20.40;2.70;;;;;;;;;;5033827;28;20119;-61
2021/12/01 12:34:56;;;;;;;24.40;3.38;;;;;;;;;;5064398;28;20045;-62
2021/12/01 12:37:23;;;;;;;22.17;3.20;;;;;;;;;;5069404;28;20059;-62
2021/12/01 12:39:51;;;;;;;27.80;3.63;;;;;;;;;;5068711;28;20368;-67
2021/12/01 12:42:17;;;;;;;18.27;3.33;;;;;;;;;;5045572;28;20056;-62
2021/12/01 12:44:45;;;;;;;15.00;2.75;;;;;;;;;;5054915;28;20045;-63
2021/12/01 12:47:22;;;;;;;21.08;3.78;;;;;;;;;;5066165;28;20029;-63
2021/12/01 12:49:51;;;;;;;22.17;3.50;;;;;;;;;;5069980;28;20093;-62
2021/12/01 12:52:26;;;;;;;17.45;3.58;;;;;;;;;;5062169;28;20048;-63
2021/12/01 12:54:53;;;;;;;15.65;3.22;;;;;;;;;;5057300;28;20056;-63
2021/12/01 12:57:20;;;;;;;24.10;4.30;;;;;;;;;;5063768;28;20055;-63
2021/12/01 12:59:46;;;;;;;16.58;3.17;;;;;;;;;;5069168;28;20373;-63
2021/12/01 13:02:15;;;;;;;21.17;4.45;;;;;;;;;;5067450;28;20094;-63
2021/12/01 13:07:34;;;;;;;22.23;3.87;;;;;;;;;;5051682;28;20422;-63
2021/12/01 13:10:04;;;;;;;17.25;3.15;;;;;;;;;;5047636;28;20131;-63
2021/12/01 13:12:30;;;;;;;20.25;3.97;;;;;;;;;;5060636;28;20075;-63
2021/12/01 13:14:57;;;;;;;24.58;3.33;;;;;;;;;;5069450;28;20091;-63
2021/12/01 13:17:23;;;;;;;36.90;5.82;;;;;;;;;;5069909;28;20087;-62
2021/12/01 13:19:49;;;;;;;22.25;3.78;;;;;;;;;;5071233;28;20440;-62
2021/12/01 13:22:15;;;;;;;14.40;2.72;;;;;;;;;;5065065;28;20071;-72
2021/12/01 13:24:41;;;;;;;17.13;3.72;;;;;;;;;;5043680;28;20064;-61
2021/12/01 13:27:07;;;;;;;14.07;2.67;;;;;;;;;;5048049;28;20048;-60
2021/12/01 13:29:35;;;;;;;22.90;3.30;;;;;;;;;;5068546;28;20060;-60
2021/12/01 13:32:02;;;;;;;19.70;3.42;;;;;;;;;;5073639;28;20055;-60
2021/12/01 13:34:33;;;;;;;22.88;3.72;;;;;;;;;;5066573;28;20033;-60
2021/12/01 13:37:04;;;;;;;14.45;2.53;;;;;;;;;;5073841;28;20044;-60
2021/12/01 13:39:31;;;;;;;17.02;2.50;;;;;;;;;;5067895;28;21402;-61
2021/12/01 13:41:58;;;;;;;14.43;2.47;;;;;;;;;;5041212;28;20047;-60
2021/12/01 13:44:27;;;;;;;14.90;2.67;;;;;;;;;;5073694;28;20037;-60
2021/12/01 13:47:03;;;;;;;17.33;3.42;;;;;;;;;;5071910;28;20131;-60
2021/12/01 13:49:37;;;;;;;20.45;3.72;;;;;;;;;;5052706;28;20368;-60
2021/12/01 13:52:03;;;;;;;22.33;2.90;;;;;;;;;;5068246;28;20059;-60
2021/12/01 13:54:29;;;;;;;23.20;3.75;;;;;;;;;;5071189;28;20048;-60
2021/12/01 13:56:58;;;;;;;13.75;2.75;;;;;;;;;;5071941;28;20076;-59
2021/12/01 13:59:24;;;;;;;20.80;3.03;;;;;;;;;;5071626;28;20155;-60
2021/12/01 14:01:51;;;;;;;28.70;5.82;;;;;;;;;;5050713;28;20119;-60
2021/12/01 14:04:17;;;;;;;25.55;4.15;;;;;;;;;;5068710;28;20048;-60
2021/12/01 14:06:43;;;;;;;19.20;3.50;;;;;;;;;;5073036;28;20041;-60
2021/12/01 14:09:12;;;;;;;16.35;3.63;;;;;;;;;;5072833;28;20040;-60
2021/12/01 14:11:40;;;;;;;21.85;3.03;;;;;;;;;;5061062;28;20400;-60
2021/12/01 14:14:07;;;;;;;20.83;4.07;;;;;;;;;;5044702;28;20051;-60
2021/12/01 14:16:34;;;;;;;26.10;3.92;;;;;;;;;;5056805;28;20045;-59
2021/12/01 14:19:01;;;;;;;19.50;3.15;;;;;;;;;;5061824;28;20053;-60
2021/12/01 14:21:28;;;;;;;18.10;3.30;;;;;;;;;;5072436;28;20049;-60
2021/12/01 14:23:56;;;;;;;17.75;3.33;;;;;;;;;;5038536;28;20152;-60
2021/12/01 14:26:28;;;;;;;16.90;3.20;;;;;;;;;;5072235;28;20044;-60
2021/12/01 14:28:57;;;;;;;14.35;2.72;;;;;;;;;;5072817;28;20430;-60
2021/12/01 14:31:23;;;;;;;19.30;3.10;;;;;;;;;;5070549;28;20056;-60
2021/12/01 14:34:06;;;;;;;16.55;2.97;;;;;;;;;;5049423;28;20060;-60
2021/12/01 14:36:32;;;;;;;14.88;3.50;;;;;;;;;;5048559;28;20047;-60
2021/12/01 14:38:59;;;;;;;26.67;3.42;;;;;;;;;;5071755;28;20041;-60
2021/12/01 14:41:29;;;;;;;21.13;3.85;;;;;;;;;;5041383;28;20066;-60
2021/12/01 14:44:04;;;;;;;23.42;3.75;;;;;;;;;;5066661;28;20114;-60